Time;durP1;ratioP1;P1;durP2;ratioP2;P2;SDS_P1;SDS_P2;PMS_P1;PMS_P2;Temp;Humidity;BMP_temperature;BMP_pressure;BME280_temperature;BME280_humidity;BME280_pressure;Samples;Min_cycle;Max_cycle;Signal;HPM_P1;HPM_P2
2023/12/18 00:00:29;;;;;;;6.95;4.70;;;;;;;;;;5137297;27;20051;-60
2023/12/18 00:02:55;;;;;;;9.07;4.65;;;;;;;;;;5153493;27;20062;-58
2023/12/18 00:05:22;;;;;;;7.15;4.68;;;;;;;;;;5153878;27;20132;-58
2023/12/18 00:07:50;;;;;;;6.55;3.92;;;;;;;;;;5153779;27;20160;-58
2023/12/18 00:10:17;;;;;;;5.45;4.28;;;;;;;;;;5153752;27;20138;-58
2023/12/18 00:12:44;;;;;;;6.40;4.40;;;;;;;;;;5153718;27;20054;-58
2023/12/18 00:15:11;;;;;;;7.22;4.70;;;;;;;;;;5156151;27;20046;-57
2023/12/18 00:17:37;;;;;;;6.40;4.50;;;;;;;;;;5141983;27;20058;-57
2023/12/18 00:20:05;;;;;;;6.05;4.50;;;;;;;;;;5154815;27;20050;-57
2023/12/18 00:22:32;;;;;;;6.88;4.65;;;;;;;;;;5157476;27;20057;-57
2023/12/18 00:25:00;;;;;;;8.98;4.53;;;;;;;;;;5157665;27;20055;-57
2023/12/18 00:27:27;;;;;;;5.32;4.30;;;;;;;;;;5157207;27;20418;-57
2023/12/18 00:29:54;;;;;;;9.57;4.38;;;;;;;;;;5150415;27;20058;-57
2023/12/18 00:32:21;;;;;;;7.30;3.63;;;;;;;;;;5137193;27;20051;-57
2023/12/18 00:34:48;;;;;;;6.22;3.88;;;;;;;;;;5136776;27;20070;-57
2023/12/18 00:37:14;;;;;;;6.43;4.40;;;;;;;;;;5136516;27;20074;-58
2023/12/18 00:39:41;;;;;;;6.78;3.47;;;;;;;;;;5136345;27;20066;-58
2023/12/18 00:42:09;;;;;;;6.88;4.15;;;;;;;;;;5136496;27;20047;-57
2023/12/18 00:44:36;;;;;;;6.28;3.80;;;;;;;;;;5142005;27;20051;-57
2023/12/18 00:47:03;;;;;;;7.00;4.00;;;;;;;;;;5156270;27;20430;-57
2023/12/18 00:49:32;;;;;;;7.05;3.80;;;;;;;;;;5156923;27;20054;-57
2023/12/18 00:51:59;;;;;;;6.63;3.78;;;;;;;;;;5156879;27;20492;-57
2023/12/18 00:54:26;;;;;;;6.28;3.65;;;;;;;;;;5157204;27;20058;-58
2023/12/18 00:56:52;;;;;;;5.80;3.58;;;;;;;;;;5150725;27;20468;-58
2023/12/18 00:59:21;;;;;;;6.38;3.80;;;;;;;;;;5137600;27;20054;-57
2023/12/18 01:01:47;;;;;;;6.80;3.90;;;;;;;;;;5149543;27;20047;-57
2023/12/18 01:04:14;;;;;;;4.13;3.25;;;;;;;;;;5135599;27;20538;-57
2023/12/18 01:06:42;;;;;;;5.78;4.07;;;;;;;;;;5136275;27;20051;-57
2023/12/18 01:09:09;;;;;;;6.90;3.60;;;;;;;;;;5136350;27;20483;-58
2023/12/18 01:11:36;;;;;;;4.93;3.63;;;;;;;;;;5136351;27;20055;-57
2023/12/18 01:14:03;;;;;;;4.80;3.22;;;;;;;;;;5136104;27;20062;-58
2023/12/18 01:16:31;;;;;;;4.50;3.30;;;;;;;;;;5153822;27;20050;-58
2023/12/18 01:18:58;;;;;;;6.57;3.60;;;;;;;;;;5155948;27;20058;-58
2023/12/18 01:21:25;;;;;;;4.63;3.58;;;;;;;;;;5151963;27;20050;-57
2023/12/18 01:23:51;;;;;;;6.55;3.53;;;;;;;;;;5135771;27;20054;-58
2023/12/18 01:26:18;;;;;;;6.75;4.00;;;;;;;;;;5136866;27;20061;-58
2023/12/18 01:28:45;;;;;;;4.07;3.25;;;;;;;;;;5135561;27;20051;-58
2023/12/18 01:31:20;;;;;;;6.10;3.33;;;;;;;;;;5137209;27;20476;-58
2023/12/18 01:33:48;;;;;;;5.63;3.00;;;;;;;;;;5135965;27;20479;-58
2023/12/18 01:36:15;;;;;;;6.75;3.67;;;;;;;;;;5135913;27;20055;-57
2023/12/18 01:38:42;;;;;;;5.15;3.45;;;;;;;;;;5135469;27;20062;-57
2023/12/18 01:41:09;;;;;;;5.57;3.08;;;;;;;;;;5135615;27;20043;-58
2023/12/18 01:43:36;;;;;;;7.53;3.40;;;;;;;;;;5135455;27;20058;-57
2023/12/18 01:46:03;;;;;;;5.22;3.25;;;;;;;;;;5136968;27;20055;-57
2023/12/18 01:48:30;;;;;;;6.35;3.30;;;;;;;;;;5135700;27;20055;-57
2023/12/18 01:50:59;;;;;;;5.63;3.40;;;;;;;;;;5135710;27;20061;-57
2023/12/18 01:53:27;;;;;;;4.87;3.37;;;;;;;;;;5141251;27;20054;-57
2023/12/18 01:55:54;;;;;;;6.40;2.78;;;;;;;;;;5156265;27;20058;-58
2023/12/18 01:58:21;;;;;;;6.55;3.35;;;;;;;;;;5155797;27;20050;-57
2023/12/18 02:00:48;;;;;;;6.78;3.20;;;;;;;;;;5145924;27;20054;-58
2023/12/18 02:03:15;;;;;;;6.10;2.85;;;;;;;;;;5134896;27;20059;-58
2023/12/18 02:05:43;;;;;;;6.65;3.08;;;;;;;;;;5135453;27;20055;-59
2023/12/18 02:08:11;;;;;;;8.40;3.25;;;;;;;;;;5135412;27;20425;-58
2023/12/18 02:10:40;;;;;;;7.00;3.50;;;;;;;;;;5135380;27;20436;-57
2023/12/18 02:13:07;;;;;;;6.90;3.42;;;;;;;;;;5135387;27;20054;-58
2023/12/18 02:15:33;;;;;;;4.90;3.00;;;;;;;;;;5143549;27;20051;-59
2023/12/18 02:18:00;;;;;;;4.30;2.70;;;;;;;;;;5155749;27;20054;-58
2023/12/18 02:20:27;;;;;;;5.25;3.17;;;;;;;;;;5155511;27;20378;-57
2023/12/18 02:22:55;;;;;;;5.57;3.40;;;;;;;;;;5155004;27;20058;-57
2023/12/18 02:25:22;;;;;;;7.25;3.20;;;;;;;;;;5155455;27;20055;-57
2023/12/18 02:27:49;;;;;;;5.45;3.08;;;;;;;;;;5155528;27;20051;-57
2023/12/18 02:30:17;;;;;;;5.93;3.00;;;;;;;;;;5154337;27;20050;-58
2023/12/18 02:32:44;;;;;;;5.18;3.08;;;;;;;;;;5154810;27;20054;-58
2023/12/18 02:35:11;;;;;;;6.20;3.05;;;;;;;;;;5155120;27;20055;-58
2023/12/18 02:37:37;;;;;;;5.43;2.95;;;;;;;;;;5139948;27;20059;-57
2023/12/18 02:40:06;;;;;;;5.70;2.97;;;;;;;;;;5134342;27;20058;-58
2023/12/18 02:42:33;;;;;;;5.53;3.10;;;;;;;;;;5134299;27;20047;-58
2023/12/18 02:45:00;;;;;;;6.55;3.38;;;;;;;;;;5150758;27;20046;-58
2023/12/18 02:47:27;;;;;;;4.43;3.30;;;;;;;;;;5155207;27;20051;-58
2023/12/18 02:49:54;;;;;;;9.07;3.47;;;;;;;;;;5154814;27;20447;-58
2023/12/18 02:52:21;;;;;;;6.43;3.40;;;;;;;;;;5154778;27;20381;-58
2023/12/18 02:54:47;;;;;;;7.32;3.13;;;;;;;;;;5154659;27;20419;-57
2023/12/18 02:57:16;;;;;;;7.40;3.42;;;;;;;;;;5154699;27;20526;-58
2023/12/18 02:59:43;;;;;;;8.77;3.50;;;;;;;;;;5150888;27;20388;-58
2023/12/18 03:02:09;;;;;;;6.07;3.42;;;;;;;;;;5133836;27;20492;-59
2023/12/18 03:04:39;;;;;;;5.43;3.30;;;;;;;;;;5134176;27;20051;-58
2023/12/18 03:07:05;;;;;;;6.10;3.47;;;;;;;;;;5133791;27;20047;-57
2023/12/18 03:09:32;;;;;;;7.22;3.65;;;;;;;;;;5134944;27;20051;-58
2023/12/18 03:11:59;;;;;;;8.13;3.72;;;;;;;;;;5147186;27;20043;-57
2023/12/18 03:14:27;;;;;;;6.35;3.42;;;;;;;;;;5149375;27;20043;-58
2023/12/18 03:16:54;;;;;;;5.72;3.35;;;;;;;;;;5154033;27;20164;-57
2023/12/18 03:19:21;;;;;;;6.00;3.15;;;;;;;;;;5154283;27;20062;-58
2023/12/18 03:21:48;;;;;;;6.15;3.30;;;;;;;;;;5154155;27;20051;-58
2023/12/18 03:24:15;;;;;;;8.25;3.75;;;;;;;;;;5153772;27;20051;-57
2023/12/18 03:26:42;;;;;;;8.52;3.78;;;;;;;;;;5154227;27;20046;-58
2023/12/18 03:29:09;;;;;;;6.93;3.50;;;;;;;;;;5150513;27;20501;-59
2023/12/18 03:31:37;;;;;;;6.60;3.45;;;;;;;;;;5133534;27;20066;-58
2023/12/18 03:34:03;;;;;;;8.02;3.40;;;;;;;;;;5133656;27;20062;-58
2023/12/18 03:36:30;;;;;;;8.00;3.58;;;;;;;;;;5139125;27;20051;-58
2023/12/18 03:38:57;;;;;;;7.75;3.95;;;;;;;;;;5153091;27;20058;-57
2023/12/18 03:41:24;;;;;;;6.80;3.70;;;;;;;;;;5154430;27;20363;-57
2023/12/18 03:43:51;;;;;;;6.25;3.55;;;;;;;;;;5151359;27;20376;-57
2023/12/18 03:46:18;;;;;;;5.57;3.60;;;;;;;;;;5133948;27;20063;-57
2023/12/18 03:48:46;;;;;;;6.13;3.80;;;;;;;;;;5132674;27;20407;-58
2023/12/18 03:51:13;;;;;;;9.10;3.88;;;;;;;;;;5133389;27;20051;-56
2023/12/18 03:53:40;;;;;;;7.78;3.60;;;;;;;;;;5133294;28;20047;-58
2023/12/18 03:56:07;;;;;;;6.70;3.60;;;;;;;;;;5133445;28;20055;-58
2023/12/18 03:58:34;;;;;;;7.45;4.00;;;;;;;;;;5134295;27;20058;-58
2023/12/18 04:01:01;;;;;;;9.13;4.20;;;;;;;;;;5153821;27;20050;-58
2023/12/18 04:03:28;;;;;;;9.65;4.00;;;;;;;;;;5153617;27;20046;-57
2023/12/18 04:05:56;;;;;;;7.38;4.30;;;;;;;;;;5154001;27;20043;-58
2023/12/18 04:08:23;;;;;;;8.77;4.47;;;;;;;;;;5153713;27;20058;-58
2023/12/18 04:10:49;;;;;;;7.68;4.35;;;;;;;;;;5153710;27;20058;-57
2023/12/18 04:13:16;;;;;;;8.38;4.50;;;;;;;;;;5145586;27;20093;-58
2023/12/18 04:15:43;;;;;;;7.53;4.38;;;;;;;;;;5136123;27;20043;-58
2023/12/18 04:18:10;;;;;;;7.65;4.47;;;;;;;;;;5153188;27;20062;-57
2023/12/18 04:20:36;;;;;;;9.60;4.63;;;;;;;;;;5153563;27;20407;-58
2023/12/18 04:23:05;;;;;;;6.40;4.20;;;;;;;;;;5153503;27;20051;-58
2023/12/18 04:25:31;;;;;;;6.95;4.25;;;;;;;;;;5153600;27;20061;-57
2023/12/18 04:27:58;;;;;;;8.05;4.03;;;;;;;;;;5150759;27;20047;-57
2023/12/18 04:30:25;;;;;;;6.72;4.32;;;;;;;;;;5153661;27;20050;-58
2023/12/18 04:32:52;;;;;;;7.40;4.30;;;;;;;;;;5152809;27;20065;-57
2023/12/18 04:35:19;;;;;;;8.38;4.28;;;;;;;;;;5153338;27;20055;-57
2023/12/18 04:37:46;;;;;;;7.60;4.20;;;;;;;;;;5153362;27;20511;-57
2023/12/18 04:40:15;;;;;;;7.20;4.38;;;;;;;;;;5153590;27;20050;-57
2023/12/18 04:42:41;;;;;;;7.53;4.35;;;;;;;;;;5141362;27;20043;-57
2023/12/18 04:45:09;;;;;;;7.88;4.72;;;;;;;;;;5152301;27;20051;-57
2023/12/18 04:47:36;;;;;;;7.93;4.90;;;;;;;;;;5152576;27;20050;-58
2023/12/18 04:50:02;;;;;;;8.57;4.70;;;;;;;;;;5152219;27;20596;-57
2023/12/18 04:52:29;;;;;;;8.23;4.72;;;;;;;;;;5146045;27;20484;-57
2023/12/18 04:54:56;;;;;;;7.57;5.15;;;;;;;;;;5132441;28;20043;-57
2023/12/18 04:57:24;;;;;;;7.25;4.78;;;;;;;;;;5133559;27;20047;-57
2023/12/18 04:59:51;;;;;;;8.90;5.10;;;;;;;;;;5139134;27;20051;-56
2023/12/18 05:02:17;;;;;;;10.50;5.13;;;;;;;;;;5156498;27;20057;-57
2023/12/18 05:04:44;;;;;;;9.95;5.20;;;;;;;;;;5156959;27;20057;-57
2023/12/18 05:07:12;;;;;;;8.80;4.60;;;;;;;;;;5154777;27;20062;-57
2023/12/18 05:09:39;;;;;;;12.18;6.30;;;;;;;;;;5135771;27;20055;-57
2023/12/18 05:12:06;;;;;;;9.23;5.50;;;;;;;;;;5136971;27;20088;-57
2023/12/18 05:14:34;;;;;;;9.63;5.22;;;;;;;;;;5135910;27;20052;-57
2023/12/18 05:17:01;;;;;;;11.43;6.00;;;;;;;;;;5135766;27;20496;-57
2023/12/18 05:19:28;;;;;;;9.27;5.30;;;;;;;;;;5135934;27;20062;-57
2023/12/18 05:21:54;;;;;;;9.10;5.40;;;;;;;;;;5136029;27;20062;-58
2023/12/18 05:24:21;;;;;;;8.68;5.90;;;;;;;;;;5135523;27;20377;-58
2023/12/18 05:26:48;;;;;;;9.20;5.97;;;;;;;;;;5136312;27;20051;-58
2023/12/18 05:29:15;;;;;;;10.57;5.40;;;;;;;;;;5135730;27;20051;-58
2023/12/18 05:31:43;;;;;;;8.38;5.32;;;;;;;;;;5135886;27;20058;-58
2023/12/18 05:34:10;;;;;;;8.98;5.90;;;;;;;;;;5150936;27;20070;-58
2023/12/18 05:36:36;;;;;;;8.80;5.60;;;;;;;;;;5152997;27;20046;-58
2023/12/18 05:39:03;;;;;;;10.35;6.88;;;;;;;;;;5143310;27;20476;-58
2023/12/18 05:41:30;;;;;;;9.80;6.10;;;;;;;;;;5135554;27;20063;-58
2023/12/18 05:43:57;;;;;;;11.10;6.18;;;;;;;;;;5136400;27;20043;-58
2023/12/18 05:46:24;;;;;;;11.40;6.20;;;;;;;;;;5135707;27;20054;-58
2023/12/18 05:48:52;;;;;;;11.02;6.47;;;;;;;;;;5135654;27;20073;-58
2023/12/18 05:51:19;;;;;;;9.75;6.38;;;;;;;;;;5134879;27;20050;-58
2023/12/18 05:53:46;;;;;;;9.00;6.03;;;;;;;;;;5135211;27;20373;-58
2023/12/18 05:56:13;;;;;;;9.50;6.32;;;;;;;;;;5135486;27;20055;-57
2023/12/18 05:58:39;;;;;;;11.10;6.13;;;;;;;;;;5135935;27;20051;-58
2023/12/18 06:01:06;;;;;;;9.25;6.75;;;;;;;;;;5135363;27;20058;-58
2023/12/18 06:03:33;;;;;;;9.60;5.82;;;;;;;;;;5134773;27;20358;-58
2023/12/18 06:06:01;;;;;;;8.77;5.78;;;;;;;;;;5136254;27;20050;-58
2023/12/18 06:08:28;;;;;;;10.02;6.57;;;;;;;;;;5135344;27;20046;-58
2023/12/18 06:10:55;;;;;;;8.15;6.22;;;;;;;;;;5134604;27;20051;-58
2023/12/18 06:13:22;;;;;;;10.10;6.28;;;;;;;;;;5140696;27;20050;-58
2023/12/18 06:15:48;;;;;;;8.85;6.40;;;;;;;;;;5154982;27;20073;-58
2023/12/18 06:18:15;;;;;;;10.50;6.53;;;;;;;;;;5152381;27;20062;-58
2023/12/18 06:20:42;;;;;;;11.50;6.50;;;;;;;;;;5142680;27;20475;-58
2023/12/18 06:23:10;;;;;;;10.40;7.50;;;;;;;;;;5134100;27;20434;-58
2023/12/18 06:25:37;;;;;;;9.52;6.70;;;;;;;;;;5134550;27;20051;-58
2023/12/18 06:28:04;;;;;;;10.23;6.45;;;;;;;;;;5135510;27;20047;-58
2023/12/18 06:30:31;;;;;;;11.02;6.80;;;;;;;;;;5146174;27;20422;-58
2023/12/18 06:32:58;;;;;;;9.95;6.47;;;;;;;;;;5155320;27;20050;-58
2023/12/18 06:35:24;;;;;;;12.48;7.20;;;;;;;;;;5155136;27;20050;-58
2023/12/18 06:37:51;;;;;;;14.13;7.65;;;;;;;;;;5155081;27;20054;-58
2023/12/18 06:40:19;;;;;;;14.02;8.25;;;;;;;;;;5155065;27;20396;-58
2023/12/18 06:42:46;;;;;;;14.55;8.50;;;;;;;;;;5152913;27;20055;-58
2023/12/18 06:45:13;;;;;;;11.80;8.07;;;;;;;;;;5134547;27;20456;-58
2023/12/18 06:47:40;;;;;;;12.27;7.90;;;;;;;;;;5133972;27;20055;-58
2023/12/18 06:50:07;;;;;;;13.35;8.52;;;;;;;;;;5150586;27;20046;-58
2023/12/18 06:52:34;;;;;;;14.70;8.70;;;;;;;;;;5154608;27;20054;-58
2023/12/18 06:55:01;;;;;;;12.63;8.48;;;;;;;;;;5154877;27;20065;-59
2023/12/18 06:57:29;;;;;;;14.82;8.25;;;;;;;;;;5154037;27;20050;-58
2023/12/18 06:59:55;;;;;;;14.02;8.30;;;;;;;;;;5136223;27;20055;-58
2023/12/18 07:02:22;;;;;;;12.20;7.95;;;;;;;;;;5153428;27;20046;-58
2023/12/18 07:04:49;;;;;;;15.32;8.50;;;;;;;;;;5153878;27;20476;-58
2023/12/18 07:07:18;;;;;;;13.25;8.10;;;;;;;;;;5154463;27;20483;-58
2023/12/18 07:09:45;;;;;;;14.43;8.65;;;;;;;;;;5152448;27;20051;-58
2023/12/18 07:12:11;;;;;;;16.55;9.45;;;;;;;;;;5137453;27;20055;-58
2023/12/18 07:14:42;;;;;;;11.68;8.45;;;;;;;;;;5135068;27;20054;-58
2023/12/18 07:17:10;;;;;;;13.27;8.43;;;;;;;;;;5136532;27;20058;-58
2023/12/18 07:19:38;;;;;;;14.77;8.75;;;;;;;;;;5154170;27;20073;-58
2023/12/18 07:22:05;;;;;;;13.80;10.00;;;;;;;;;;5153932;27;20491;-58
2023/12/18 07:24:32;;;;;;;16.38;10.20;;;;;;;;;;5153649;27;20050;-57
2023/12/18 07:26:59;;;;;;;14.82;9.77;;;;;;;;;;5153732;27;20051;-57
2023/12/18 07:29:26;;;;;;;13.10;9.60;;;;;;;;;;5138119;27;20054;-58
2023/12/18 07:31:54;;;;;;;17.05;10.43;;;;;;;;;;5148592;27;20387;-58
2023/12/18 07:34:21;;;;;;;14.25;9.38;;;;;;;;;;5154271;27;20431;-59
2023/12/18 07:36:47;;;;;;;13.77;9.00;;;;;;;;;;5146260;27;20057;-58
2023/12/18 07:39:14;;;;;;;14.15;9.63;;;;;;;;;;5152800;27;20415;-58
2023/12/18 07:41:41;;;;;;;22.38;11.60;;;;;;;;;;5153589;27;20050;-58
2023/12/18 07:44:08;;;;;;;15.00;10.55;;;;;;;;;;5146081;27;20050;-59
2023/12/18 07:46:35;;;;;;;11.55;8.88;;;;;;;;;;5145059;27;20058;-58
2023/12/18 07:49:03;;;;;;;16.30;9.20;;;;;;;;;;5139589;27;20073;-58
2023/12/18 07:51:30;;;;;;;14.05;9.57;;;;;;;;;;5147351;27;20051;-57
2023/12/18 07:53:57;;;;;;;13.20;9.10;;;;;;;;;;5148301;27;20044;-57
2023/12/18 07:56:24;;;;;;;20.13;10.48;;;;;;;;;;5135347;27;20056;-58
2023/12/18 07:58:51;;;;;;;20.30;11.27;;;;;;;;;;5134089;27;20058;-39
2023/12/18 08:01:18;;;;;;;19.05;11.57;;;;;;;;;;5140989;27;20051;-62
2023/12/18 08:03:45;;;;;;;16.90;11.13;;;;;;;;;;5134934;27;20415;-62
2023/12/18 08:06:13;;;;;;;16.98;11.00;;;;;;;;;;5147156;27;20055;-61
2023/12/18 08:08:39;;;;;;;17.27;10.98;;;;;;;;;;5140381;27;20059;-61
2023/12/18 08:11:06;;;;;;;19.50;11.18;;;;;;;;;;5132811;28;20431;-61
2023/12/18 08:13:38;;;;;;;21.05;12.90;;;;;;;;;;5134793;27;20051;-61
2023/12/18 08:16:05;;;;;;;19.02;13.35;;;;;;;;;;5148584;27;20380;-62
2023/12/18 08:18:32;;;;;;;20.55;12.57;;;;;;;;;;5150287;27;20165;-61
2023/12/18 08:20:59;;;;;;;15.38;12.15;;;;;;;;;;5139047;27;20054;-61
2023/12/18 08:23:27;;;;;;;16.58;11.70;;;;;;;;;;5153194;27;20419;-61
2023/12/18 08:25:54;;;;;;;20.15;12.63;;;;;;;;;;5148439;27;20050;-61
2023/12/18 08:28:21;;;;;;;18.38;11.85;;;;;;;;;;5132860;28;20485;-61
2023/12/18 08:30:48;;;;;;;18.63;13.00;;;;;;;;;;5135131;27;20407;-61
2023/12/18 08:33:14;;;;;;;18.60;12.10;;;;;;;;;;5135777;27;20051;-61
2023/12/18 08:35:41;;;;;;;21.60;12.95;;;;;;;;;;5150336;27;20403;-61
2023/12/18 08:38:08;;;;;;;20.35;13.52;;;;;;;;;;5153418;27;20054;-61
2023/12/18 08:40:36;;;;;;;17.38;12.95;;;;;;;;;;5157579;27;20479;-62
2023/12/18 08:43:03;;;;;;;18.30;12.85;;;;;;;;;;5155409;27;20046;-61
2023/12/18 08:45:30;;;;;;;18.80;13.32;;;;;;;;;;5150261;27;20061;-61
2023/12/18 08:47:59;;;;;;;24.20;13.63;;;;;;;;;;5151441;27;20073;-62
2023/12/18 08:50:26;;;;;;;20.40;13.57;;;;;;;;;;5152686;27;20069;-59
2023/12/18 08:52:53;;;;;;;17.85;12.85;;;;;;;;;;5148235;27;20055;-59
2023/12/18 08:55:20;;;;;;;18.02;13.13;;;;;;;;;;5154341;27;20415;-60
2023/12/18 08:57:48;;;;;;;21.35;12.88;;;;;;;;;;5137636;27;20058;-61
2023/12/18 09:00:15;;;;;;;18.33;13.18;;;;;;;;;;5139931;27;20399;-61
2023/12/18 09:02:42;;;;;;;20.00;12.57;;;;;;;;;;5145337;27;20058;-60
2023/12/18 09:05:09;;;;;;;18.33;12.93;;;;;;;;;;5138564;27;20058;-61
2023/12/18 09:07:36;;;;;;;18.38;13.27;;;;;;;;;;5151010;27;20055;-60
2023/12/18 09:10:02;;;;;;;18.38;13.23;;;;;;;;;;5156975;27;20054;-60
2023/12/18 09:12:29;;;;;;;18.77;13.20;;;;;;;;;;5156684;27;20058;-61
2023/12/18 09:14:57;;;;;;;17.95;12.55;;;;;;;;;;5149136;27;20047;-61
2023/12/18 09:17:24;;;;;;;17.65;13.82;;;;;;;;;;5140002;27;20507;-61
2023/12/18 09:19:51;;;;;;;20.67;15.10;;;;;;;;;;5149785;27;20065;-60
2023/12/18 09:22:18;;;;;;;21.02;13.77;;;;;;;;;;5155240;27;20051;-61
2023/12/18 09:24:45;;;;;;;21.10;13.27;;;;;;;;;;5152749;27;20055;-60
2023/12/18 09:27:12;;;;;;;19.95;13.85;;;;;;;;;;5154693;27;20061;-61
2023/12/18 09:29:39;;;;;;;18.40;12.90;;;;;;;;;;5150817;27;20051;-60
2023/12/18 09:32:08;;;;;;;17.02;12.80;;;;;;;;;;5143151;27;20051;-61
2023/12/18 09:34:35;;;;;;;19.42;13.13;;;;;;;;;;5142147;27;20054;-60
2023/12/18 09:37:02;;;;;;;17.08;13.18;;;;;;;;;;5144309;27;20055;-60
2023/12/18 09:39:29;;;;;;;19.42;12.10;;;;;;;;;;5135809;27;20059;-60
2023/12/18 09:42:00;;;;;;;17.30;11.85;;;;;;;;;;5151476;27;20046;-60
2023/12/18 09:44:27;;;;;;;15.15;11.82;;;;;;;;;;5140394;27;20062;-61
2023/12/18 09:46:54;;;;;;;16.08;11.48;;;;;;;;;;5148699;27;20058;-61
2023/12/18 09:49:22;;;;;;;14.82;11.23;;;;;;;;;;5144490;27;20051;-61
2023/12/18 09:51:51;;;;;;;15.32;11.02;;;;;;;;;;5147624;27;20403;-61
2023/12/18 09:54:18;;;;;;;14.52;10.65;;;;;;;;;;5151977;27;20494;-61
2023/12/18 09:56:47;;;;;;;16.92;11.15;;;;;;;;;;5138053;27;20054;-61
2023/12/18 09:59:16;;;;;;;16.17;12.10;;;;;;;;;;5134516;27;20388;-60
2023/12/18 10:01:43;;;;;;;16.15;12.02;;;;;;;;;;5148313;27;20158;-61
2023/12/18 10:04:09;;;;;;;17.30;11.70;;;;;;;;;;5134559;27;20051;-62
2023/12/18 10:06:38;;;;;;;14.60;11.10;;;;;;;;;;5149267;27;20050;-61
2023/12/18 10:09:09;;;;;;;16.15;11.57;;;;;;;;;;5137948;27;20051;-60
2023/12/18 10:11:36;;;;;;;14.52;11.20;;;;;;;;;;5136156;27;20051;-60
2023/12/18 10:14:02;;;;;;;13.18;10.55;;;;;;;;;;5136944;27;20054;-61
2023/12/18 10:16:29;;;;;;;14.80;11.35;;;;;;;;;;5139797;27;20062;-66
2023/12/18 10:18:57;;;;;;;13.95;10.88;;;;;;;;;;5134714;27;20051;-63
2023/12/18 10:21:24;;;;;;;18.10;11.15;;;;;;;;;;5134726;27;20047;-59
2023/12/18 10:23:53;;;;;;;14.65;10.15;;;;;;;;;;5134755;27;20054;-60
2023/12/18 10:26:20;;;;;;;12.73;9.98;;;;;;;;;;5140440;27;20039;-59
2023/12/18 10:28:47;;;;;;;11.95;8.95;;;;;;;;;;5152827;27;20487;-60
2023/12/18 10:31:14;;;;;;;10.88;8.32;;;;;;;;;;5149228;27;20043;-60
2023/12/18 10:33:41;;;;;;;9.52;7.90;;;;;;;;;;5152690;27;20046;-60
2023/12/18 10:36:09;;;;;;;9.02;7.82;;;;;;;;;;5154966;27;20043;-60
2023/12/18 10:38:36;;;;;;;9.65;8.00;;;;;;;;;;5155222;27;20066;-59
2023/12/18 10:41:05;;;;;;;9.13;7.30;;;;;;;;;;5154732;27;20050;-60
2023/12/18 10:43:32;;;;;;;8.90;7.70;;;;;;;;;;5154215;27;20073;-61
2023/12/18 10:46:02;;;;;;;9.45;7.18;;;;;;;;;;5153410;27;20408;-60
2023/12/18 10:48:29;;;;;;;8.27;7.45;;;;;;;;;;5153203;27;20062;-60
2023/12/18 10:50:56;;;;;;;9.02;8.13;;;;;;;;;;5154959;27;20055;-58
2023/12/18 10:53:24;;;;;;;8.90;7.72;;;;;;;;;;5135089;27;20058;-59
2023/12/18 10:55:51;;;;;;;9.10;7.78;;;;;;;;;;5138928;27;20050;-58
2023/12/18 10:58:20;;;;;;;9.07;7.57;;;;;;;;;;5154100;27;20054;-58
2023/12/18 11:00:47;;;;;;;9.95;8.30;;;;;;;;;;5149012;27;20435;-58
2023/12/18 11:03:14;;;;;;;8.73;7.82;;;;;;;;;;5154377;27;20431;-58
2023/12/18 11:05:41;;;;;;;9.35;8.32;;;;;;;;;;5154752;27;20053;-58
2023/12/18 11:08:08;;;;;;;10.65;9.02;;;;;;;;;;5154146;27;20050;-58
2023/12/18 11:10:35;;;;;;;10.57;9.48;;;;;;;;;;5154369;27;20050;-57
2023/12/18 11:13:07;;;;;;;10.57;8.82;;;;;;;;;;5150312;27;20050;-59
2023/12/18 11:15:39;;;;;;;11.05;9.38;;;;;;;;;;5134978;27;20047;-60
2023/12/18 11:18:14;;;;;;;10.85;8.68;;;;;;;;;;5151316;27;20057;-59
2023/12/18 11:20:41;;;;;;;9.02;7.97;;;;;;;;;;5146551;27;20110;-59
2023/12/18 11:23:10;;;;;;;9.38;7.90;;;;;;;;;;5147312;27;20058;-59
2023/12/18 11:25:38;;;;;;;9.73;8.73;;;;;;;;;;5153405;27;20051;-59
2023/12/18 11:28:05;;;;;;;8.40;7.50;;;;;;;;;;5154490;27;20062;-59
2023/12/18 11:30:32;;;;;;;10.32;7.15;;;;;;;;;;5153744;27;20053;-59
2023/12/18 11:33:03;;;;;;;9.70;7.35;;;;;;;;;;5154104;27;20057;-59
2023/12/18 11:35:31;;;;;;;8.13;7.05;;;;;;;;;;5154402;27;20043;-59
2023/12/18 11:38:05;;;;;;;8.55;7.40;;;;;;;;;;5154338;27;20058;-59
2023/12/18 11:40:42;;;;;;;8.27;6.85;;;;;;;;;;5153902;27;20492;-59
2023/12/18 11:43:09;;;;;;;8.40;7.50;;;;;;;;;;5154075;27;20470;-59
2023/12/18 11:45:37;;;;;;;9.35;7.15;;;;;;;;;;5151977;27;20058;-59
2023/12/18 11:48:06;;;;;;;8.48;6.80;;;;;;;;;;5153193;27;20050;-59
2023/12/18 11:50:34;;;;;;;8.52;6.07;;;;;;;;;;5154186;27;20051;-59
2023/12/18 11:53:01;;;;;;;7.38;6.05;;;;;;;;;;5153958;27;20057;-59
2023/12/18 11:55:44;;;;;;;8.10;5.82;;;;;;;;;;5151496;27;20061;-59
2023/12/18 11:58:11;;;;;;;6.28;5.13;;;;;;;;;;5133055;28;20058;-60
2023/12/18 12:00:38;;;;;;;7.53;5.55;;;;;;;;;;5143283;27;20047;-59
2023/12/18 12:03:06;;;;;;;5.80;5.10;;;;;;;;;;5142753;27;20051;-59
2023/12/18 12:05:33;;;;;;;8.60;5.95;;;;;;;;;;5147511;27;20058;-59
2023/12/18 12:08:01;;;;;;;8.32;5.95;;;;;;;;;;5152225;27;20057;-59
2023/12/18 12:10:28;;;;;;;7.15;5.60;;;;;;;;;;5154057;27;20066;-59
2023/12/18 12:12:55;;;;;;;8.27;5.70;;;;;;;;;;5157618;27;20050;-60
2023/12/18 12:15:24;;;;;;;7.03;5.20;;;;;;;;;;5145520;27;20077;-60
2023/12/18 12:17:50;;;;;;;7.63;5.15;;;;;;;;;;5136281;27;20416;-59
2023/12/18 12:20:19;;;;;;;9.05;5.35;;;;;;;;;;5137505;27;20047;-59
2023/12/18 12:22:45;;;;;;;7.25;5.68;;;;;;;;;;5142625;27;20379;-59
2023/12/18 12:25:12;;;;;;;6.72;5.75;;;;;;;;;;5157089;27;20047;-60
2023/12/18 12:27:39;;;;;;;7.35;4.90;;;;;;;;;;5137194;27;20404;-59
2023/12/18 12:30:07;;;;;;;7.93;5.47;;;;;;;;;;5138015;27;20042;-59
2023/12/18 12:32:35;;;;;;;6.72;5.15;;;;;;;;;;5136862;27;20519;-59
2023/12/18 12:35:01;;;;;;;8.35;5.25;;;;;;;;;;5155731;27;20051;-59
2023/12/18 12:37:30;;;;;;;8.07;5.50;;;;;;;;;;5157037;27;20046;-59
2023/12/18 12:39:57;;;;;;;6.28;4.90;;;;;;;;;;5147885;27;20380;-60
2023/12/18 12:42:24;;;;;;;8.27;5.18;;;;;;;;;;5157011;27;20062;-59
2023/12/18 12:44:51;;;;;;;6.72;4.65;;;;;;;;;;5154149;27;20146;-59
2023/12/18 12:47:18;;;;;;;7.60;4.97;;;;;;;;;;5144505;27;20043;-59
2023/12/18 12:49:46;;;;;;;7.10;4.50;;;;;;;;;;5148814;27;20066;-59
2023/12/18 12:52:13;;;;;;;5.20;4.22;;;;;;;;;;5134361;27;20609;-59
2023/12/18 12:54:43;;;;;;;5.80;4.43;;;;;;;;;;5135974;27;20055;-59
2023/12/18 12:57:10;;;;;;;5.28;4.25;;;;;;;;;;5136316;27;20042;-59
2023/12/18 12:59:37;;;;;;;5.15;4.07;;;;;;;;;;5156357;27;20399;-59
2023/12/18 13:02:04;;;;;;;6.25;3.90;;;;;;;;;;5141208;27;20051;-59
2023/12/18 13:04:31;;;;;;;5.38;3.90;;;;;;;;;;5138234;27;20062;-59
2023/12/18 13:06:58;;;;;;;6.20;4.07;;;;;;;;;;5137688;27;20044;-60
2023/12/18 13:09:24;;;;;;;5.47;3.70;;;;;;;;;;5134454;27;20087;-59
2023/12/18 13:11:53;;;;;;;5.93;4.10;;;;;;;;;;5137834;27;20050;-59
2023/12/18 13:14:20;;;;;;;5.78;4.03;;;;;;;;;;5135472;27;20055;-59
2023/12/18 13:16:47;;;;;;;5.38;4.10;;;;;;;;;;5137086;27;20054;-59
2023/12/18 13:19:14;;;;;;;5.20;4.20;;;;;;;;;;5138700;27;20047;-59
2023/12/18 13:21:40;;;;;;;6.45;4.18;;;;;;;;;;5149642;27;20055;-59
2023/12/18 13:24:07;;;;;;;7.70;4.72;;;;;;;;;;5154948;27;20058;-60
2023/12/18 13:26:34;;;;;;;5.93;4.25;;;;;;;;;;5154991;27;20051;-59
2023/12/18 13:29:02;;;;;;;6.93;4.63;;;;;;;;;;5155354;27;20419;-58
2023/12/18 13:31:30;;;;;;;5.47;4.18;;;;;;;;;;5154596;27;20050;-58
2023/12/18 13:33:57;;;;;;;6.28;4.40;;;;;;;;;;5155376;27;20054;-59
2023/12/18 13:36:24;;;;;;;7.78;4.68;;;;;;;;;;5149864;27;20149;-59
2023/12/18 13:38:51;;;;;;;6.75;4.38;;;;;;;;;;5145742;27;20060;-59
2023/12/18 13:41:18;;;;;;;7.53;4.43;;;;;;;;;;5155549;27;20062;-58
2023/12/18 13:43:45;;;;;;;6.07;4.18;;;;;;;;;;5136583;27;20047;-59
2023/12/18 13:46:13;;;;;;;6.55;4.20;;;;;;;;;;5135213;27;20058;-58
2023/12/18 13:48:39;;;;;;;6.35;3.80;;;;;;;;;;5145933;27;20050;-58
2023/12/18 13:51:06;;;;;;;5.85;4.40;;;;;;;;;;5154130;27;20057;-59
2023/12/18 13:53:33;;;;;;;6.13;4.20;;;;;;;;;;5154803;27;20057;-59
2023/12/18 13:56:00;;;;;;;5.47;4.25;;;;;;;;;;5143660;27;20055;-58
2023/12/18 13:58:27;;;;;;;6.00;4.97;;;;;;;;;;5134159;28;20047;-59
2023/12/18 14:00:53;;;;;;;6.00;4.68;;;;;;;;;;5140977;27;20038;-59
2023/12/18 14:03:22;;;;;;;7.57;5.15;;;;;;;;;;5110988;27;1231395;-58
2023/12/18 14:05:49;;;;;;;6.78;4.75;;;;;;;;;;5155588;27;20055;-58
2023/12/18 14:08:15;;;;;;;6.25;4.43;;;;;;;;;;5149772;27;20058;-58
2023/12/18 14:10:42;;;;;;;5.75;4.15;;;;;;;;;;5153340;27;20050;-58
2023/12/18 14:13:09;;;;;;;6.97;4.97;;;;;;;;;;5146947;27;20047;-58
2023/12/18 14:15:36;;;;;;;7.40;4.90;;;;;;;;;;5136152;27;20055;-58
2023/12/18 14:18:03;;;;;;;6.32;4.47;;;;;;;;;;5141938;27;20042;-58
2023/12/18 14:20:31;;;;;;;7.18;4.68;;;;;;;;;;5155687;27;20074;-58
2023/12/18 14:22:58;;;;;;;9.32;4.40;;;;;;;;;;5154639;27;20410;-58
2023/12/18 14:25:25;;;;;;;6.35;4.18;;;;;;;;;;5154526;27;20058;-60
2023/12/18 14:27:52;;;;;;;7.32;4.45;;;;;;;;;;5149916;27;20050;-57
2023/12/18 14:30:19;;;;;;;5.85;4.03;;;;;;;;;;5134872;27;20074;-58
2023/12/18 14:32:46;;;;;;;4.88;3.90;;;;;;;;;;5135087;27;20047;-59
2023/12/18 14:35:13;;;;;;;6.15;3.80;;;;;;;;;;5134948;27;20059;-59